createdAt,value
2018-12-24T00:00:39.989Z,73.89
2018-12-24T00:03:10.614Z,73.51
2018-12-24T00:05:40.759Z,72.81
2018-12-24T00:08:11.046Z,72.71
2018-12-24T00:10:41.349Z,72.66
2018-12-24T00:13:11.620Z,72.29
2018-12-24T00:15:41.922Z,71.93
2018-12-24T00:18:12.557Z,71.58
2018-12-24T00:20:42.804Z,70.96
2018-12-24T00:23:13.096Z,70.52
2018-12-24T00:25:43.756Z,70.09
2018-12-24T00:28:15.563Z,69.94
2018-12-24T00:30:45.803Z,69.71
2018-12-24T00:33:16.038Z,69.86
2018-12-24T00:35:46.314Z,70.71
2018-12-24T00:38:16.800Z,71.39
2018-12-24T00:40:47.257Z,71.48
2018-12-24T00:43:17.591Z,70.94
2018-12-24T00:45:47.884Z,70.89
2018-12-24T00:48:18.627Z,71.15
2018-12-24T00:50:48.950Z,71.50
2018-12-24T00:53:19.051Z,71.60
2018-12-24T00:55:49.332Z,71.94
2018-12-24T00:58:19.618Z,72.37
2018-12-24T01:00:49.820Z,72.60
2018-12-24T01:03:20.127Z,72.46
2018-12-24T01:05:50.286Z,72.20
2018-12-24T01:08:20.515Z,71.95
2018-12-24T01:10:50.994Z,72.02
2018-12-24T01:13:20.964Z,72.32
2018-12-24T01:15:50.921Z,72.64
2018-12-24T01:18:21.048Z,72.77
2018-12-24T01:20:51.758Z,73.06
2018-12-24T01:23:21.953Z,73.57
2018-12-24T01:25:52.441Z,73.75
2018-12-24T01:28:22.743Z,73.80
2018-12-24T01:30:52.831Z,73.83
2018-12-24T01:33:23.005Z,74.37
2018-12-24T01:35:53.404Z,74.63
2018-12-24T01:38:23.906Z,75.22
2018-12-24T01:40:54.134Z,75.60
2018-12-24T01:43:24.517Z,75.90
2018-12-24T01:45:54.587Z,76.28
2018-12-24T01:48:24.895Z,76.04
2018-12-24T01:50:55.397Z,76.75
2018-12-24T01:53:25.887Z,77.37
2018-12-24T01:55:56.079Z,76.74
2018-12-24T01:58:26.315Z,77.14
2018-12-24T02:00:56.578Z,76.19
2018-12-24T02:03:26.749Z,76.48
2018-12-24T02:05:56.999Z,76.61
2018-12-24T02:08:27.240Z,76.86
2018-12-24T02:10:57.551Z,76.73
2018-12-24T02:13:27.868Z,76.18
2018-12-24T02:15:58.346Z,75.65
2018-12-24T02:18:28.618Z,75.25
2018-12-24T02:20:58.947Z,75.23
2018-12-24T02:23:29.317Z,75.33
2018-12-24T02:25:59.594Z,75.38
2018-12-24T02:28:29.929Z,75.45
2018-12-24T02:31:01.302Z,74.95
2018-12-24T02:33:31.598Z,74.82
2018-12-24T02:36:01.819Z,74.70
2018-12-24T02:38:32.111Z,74.45
2018-12-24T02:41:02.151Z,74.84
2018-12-24T02:43:32.531Z,75.08
2018-12-24T02:46:02.822Z,75.38
2018-12-24T02:48:33.153Z,75.73
2018-12-24T02:51:03.339Z,76.19
2018-12-24T02:53:33.801Z,76.15
2018-12-24T02:56:04.020Z,76.56
2018-12-24T02:58:34.283Z,76.79
2018-12-24T03:01:04.384Z,77.05
2018-12-24T03:03:34.596Z,76.71
2018-12-24T03:06:05.570Z,76.95
2018-12-24T03:08:35.999Z,76.65
2018-12-24T03:11:06.090Z,76.32
2018-12-24T03:13:36.428Z,76.54
2018-12-24T03:16:07.060Z,76.86
2018-12-24T03:18:37.335Z,77.11
2018-12-24T03:21:07.477Z,77.39
2018-12-24T03:23:37.969Z,77.45
2018-12-24T03:26:08.241Z,77.64
2018-12-24T03:28:38.577Z,77.63
2018-12-24T03:31:08.842Z,78.01
2018-12-24T03:33:39.017Z,78.02
2018-12-24T03:36:09.410Z,78.27
2018-12-24T03:38:39.733Z,78.42
2018-12-24T03:41:09.882Z,78.19
2018-12-24T03:43:40.340Z,78.33
2018-12-24T03:46:10.717Z,78.51
2018-12-24T03:48:40.793Z,78.66
2018-12-24T03:51:11.001Z,78.60
2018-12-24T03:53:41.281Z,78.59
2018-12-24T03:56:11.348Z,78.83
2018-12-24T03:58:41.474Z,78.66
2018-12-24T04:01:11.817Z,78.47
2018-12-24T04:03:42.220Z,78.56
2018-12-24T04:06:12.445Z,78.14
2018-12-24T04:08:42.602Z,78.36
2018-12-24T04:11:12.795Z,78.28
2018-12-24T04:13:43.195Z,77.96
2018-12-24T04:16:13.466Z,77.62
2018-12-24T04:18:43.670Z,77.55
2018-12-24T04:21:13.777Z,77.02
2018-12-24T04:23:44.166Z,77.16
2018-12-24T04:26:15.593Z,77.07
2018-12-24T04:28:46.177Z,76.96
2018-12-24T04:31:16.421Z,77.01
2018-12-24T04:33:46.695Z,77.09
2018-12-24T04:36:17.171Z,77.18
2018-12-24T04:38:47.394Z,77.56
2018-12-24T04:41:17.873Z,78.03
2018-12-24T04:43:48.031Z,79.35
2018-12-24T04:46:18.486Z,79.69
2018-12-24T04:48:48.576Z,79.49
2018-12-24T04:51:18.803Z,79.36
2018-12-24T04:53:49.050Z,79.33
2018-12-24T04:56:19.231Z,79.22
2018-12-24T04:58:49.282Z,78.90
2018-12-24T05:01:19.406Z,78.87
2018-12-24T05:03:49.936Z,78.80
2018-12-24T05:06:20.159Z,79.41
2018-12-24T05:08:50.711Z,79.72
2018-12-24T05:11:20.971Z,79.83
2018-12-24T05:13:51.230Z,79.98
2018-12-24T05:16:21.549Z,80.00
2018-12-24T05:18:51.831Z,79.56
2018-12-24T05:21:22.018Z,79.10
2018-12-24T05:23:52.358Z,78.68
2018-12-24T05:26:22.413Z,77.72
2018-12-24T05:28:52.673Z,77.20
2018-12-24T05:31:24.159Z,77.43
2018-12-24T05:33:54.398Z,77.62
2018-12-24T05:36:24.598Z,76.28
2018-12-24T05:38:54.722Z,75.97
2018-12-24T05:41:24.993Z,77.21
2018-12-24T05:43:54.955Z,78.09
2018-12-24T05:46:25.485Z,78.36
2018-12-24T05:48:55.750Z,78.85
2018-12-24T05:51:26.037Z,78.73
2018-12-24T05:53:56.262Z,78.74
2018-12-24T05:56:26.519Z,78.15
2018-12-24T05:58:57.128Z,78.31
2018-12-24T06:01:27.442Z,78.67
2018-12-24T06:03:57.699Z,79.53
2018-12-24T06:06:28.089Z,80.12
2018-12-24T06:08:58.220Z,80.80
2018-12-24T06:11:28.425Z,77.95
2018-12-24T06:13:58.984Z,77.52
2018-12-24T06:16:29.212Z,77.50
2018-12-24T06:18:59.666Z,77.63
2018-12-24T06:21:30.065Z,77.86
2018-12-24T06:24:00.178Z,77.94
2018-12-24T06:26:31.588Z,78.22
2018-12-24T06:29:01.953Z,78.27
2018-12-24T06:31:32.586Z,78.10
2018-12-24T06:34:02.840Z,77.73
2018-12-24T06:36:33.241Z,77.50
2018-12-24T06:39:05.832Z,77.43
2018-12-24T06:41:36.336Z,76.87
2018-12-24T06:44:07.113Z,77.04
2018-12-24T06:46:37.420Z,76.87
2018-12-24T06:49:07.783Z,76.39
2018-12-24T06:51:38.684Z,76.43
2018-12-24T06:54:08.806Z,75.81
2018-12-24T06:56:39.495Z,75.98
2018-12-24T06:59:09.923Z,76.36
2018-12-24T07:01:39.978Z,76.17
2018-12-24T07:04:10.478Z,76.38
2018-12-24T07:06:40.775Z,75.55
2018-12-24T07:09:10.862Z,75.69
2018-12-24T07:11:41.186Z,74.89
2018-12-24T07:14:15.534Z,74.19
2018-12-24T07:16:43.827Z,74.35
2018-12-24T07:19:14.228Z,74.16
2018-12-24T07:21:45.786Z,75.03
2018-12-24T07:24:16.052Z,74.09
2018-12-24T07:26:46.249Z,74.36
2018-12-24T07:29:16.443Z,73.56
2018-12-24T07:31:46.871Z,73.95
2018-12-24T07:34:17.144Z,75.29
2018-12-24T07:36:47.227Z,75.68
2018-12-24T07:39:17.446Z,76.35
2018-12-24T07:41:47.937Z,76.01
2018-12-24T07:44:24.075Z,76.55
2018-12-24T07:46:50.259Z,76.52
2018-12-24T07:49:20.747Z,76.34
2018-12-24T07:51:50.897Z,76.54
2018-12-24T07:54:21.138Z,76.65
2018-12-24T07:56:51.421Z,75.91
2018-12-24T07:59:21.593Z,75.63
2018-12-24T08:01:51.717Z,74.50
2018-12-24T08:04:22.069Z,73.53
2018-12-24T08:06:52.344Z,73.50
2018-12-24T08:09:22.627Z,73.16
2018-12-24T08:11:52.899Z,72.67
2018-12-24T08:14:23.340Z,73.46
2018-12-24T08:16:55.054Z,74.54
2018-12-24T08:19:25.324Z,75.12
2018-12-24T08:21:55.656Z,76.13
2018-12-24T08:24:26.135Z,76.74
2018-12-24T08:26:56.299Z,77.16
2018-12-24T08:29:26.793Z,76.88
2018-12-24T08:31:56.856Z,75.98
2018-12-24T08:34:27.187Z,76.08
2018-12-24T08:36:57.566Z,75.92
2018-12-24T08:39:27.823Z,75.94
2018-12-24T08:41:57.992Z,75.24
2018-12-24T08:44:28.106Z,76.18
2018-12-24T08:46:58.198Z,76.69
2018-12-24T08:49:28.465Z,76.97
2018-12-24T08:51:58.740Z,77.28
2018-12-24T08:54:29.061Z,77.60
2018-12-24T08:56:59.872Z,77.68
2018-12-24T08:59:29.929Z,78.41
2018-12-24T09:02:01.723Z,78.57
2018-12-24T09:04:31.762Z,78.70
2018-12-24T09:07:02.088Z,78.46
2018-12-24T09:09:32.161Z,78.43
2018-12-24T09:12:02.376Z,77.94
2018-12-24T09:14:32.742Z,77.80
2018-12-24T09:17:02.947Z,76.90
2018-12-24T09:19:33.364Z,76.82
2018-12-24T09:22:04.885Z,76.80
2018-12-24T09:24:36.448Z,76.74
2018-12-24T09:27:06.960Z,76.78
2018-12-24T09:29:37.213Z,76.81
2018-12-24T09:32:07.432Z,76.76
2018-12-24T09:34:37.726Z,76.97
2018-12-24T09:37:07.883Z,76.94
2018-12-24T09:39:38.427Z,76.90
2018-12-24T09:42:09.014Z,76.88
2018-12-24T09:44:39.303Z,76.90
2018-12-24T09:47:09.443Z,77.27
2018-12-24T09:49:39.527Z,77.20
2018-12-24T09:52:09.843Z,77.31
2018-12-24T09:54:40.117Z,77.30
2018-12-24T09:57:10.416Z,77.46
2018-12-24T10:00:20.080Z,77.40
2018-12-24T10:02:59.392Z,77.03
2018-12-24T10:05:30.150Z,77.03
2018-12-24T10:08:02.800Z,76.97
2018-12-24T10:10:33.017Z,76.71
2018-12-24T10:13:04.091Z,76.85
2018-12-24T10:15:33.983Z,77.15
2018-12-24T10:18:03.685Z,77.01
2018-12-24T10:20:33.536Z,76.86
2018-12-24T10:23:03.202Z,76.94
2018-12-24T10:25:33.124Z,76.46
2018-12-24T10:28:03.074Z,76.14
2018-12-24T10:30:32.852Z,75.30
2018-12-24T10:33:02.570Z,74.50
2018-12-24T10:35:33.666Z,73.98
2018-12-24T10:38:03.433Z,73.93
2018-12-24T10:40:36.117Z,72.82
2018-12-24T10:43:05.883Z,71.93
2018-12-24T10:45:35.750Z,71.13
2018-12-24T10:48:05.691Z,70.65
2018-12-24T10:50:35.562Z,70.33
2018-12-24T10:53:05.599Z,70.56
2018-12-24T10:55:35.402Z,70.14
2018-12-24T10:58:05.377Z,70.30
2018-12-24T11:00:35.127Z,70.33
2018-12-24T11:03:04.961Z,70.75
2018-12-24T11:05:34.936Z,70.61
2018-12-24T11:08:04.795Z,70.36
2018-12-24T11:10:34.590Z,70.64
2018-12-24T11:13:05.561Z,70.58
2018-12-24T11:15:35.243Z,71.36
2018-12-24T11:18:04.956Z,71.63
2018-12-24T11:20:34.820Z,71.87
2018-12-24T11:23:04.810Z,72.13
2018-12-24T11:25:34.517Z,72.60
2018-12-24T11:28:05.552Z,72.69
2018-12-24T11:30:35.369Z,72.77
2018-12-24T11:33:05.173Z,72.92
2018-12-24T11:35:35.021Z,73.00
2018-12-24T11:38:04.787Z,72.87
2018-12-24T11:40:34.717Z,72.79
2018-12-24T11:43:04.673Z,73.24
2018-12-24T11:45:36.046Z,73.00
2018-12-24T11:48:06.141Z,72.85
2018-12-24T11:50:35.999Z,73.60
2018-12-24T11:53:05.737Z,73.87
2018-12-24T11:55:35.447Z,74.08
2018-12-24T11:58:13.405Z,74.56
2018-12-24T12:00:38.296Z,74.60
2018-12-24T12:03:07.978Z,74.55
2018-12-24T12:05:37.838Z,74.06
2018-12-24T12:08:07.675Z,73.49
2018-12-24T12:10:38.552Z,72.74
2018-12-24T12:13:08.332Z,72.75
2018-12-24T12:15:42.763Z,72.67
2018-12-24T12:18:10.549Z,72.68
2018-12-24T12:20:40.314Z,72.74
2018-12-24T12:23:09.956Z,72.53
2018-12-24T12:25:39.786Z,72.96
2018-12-24T12:28:09.643Z,73.49
2018-12-24T12:30:39.419Z,74.09
2018-12-24T12:33:09.536Z,74.23
2018-12-24T12:35:39.490Z,74.43
2018-12-24T12:38:09.253Z,74.93
2018-12-24T12:40:38.970Z,75.21
2018-12-24T12:43:08.821Z,75.47
2018-12-24T12:45:38.709Z,75.61
2018-12-24T12:48:08.564Z,75.65
2018-12-24T12:50:38.227Z,75.73
2018-12-24T12:53:08.032Z,75.77
2018-12-24T12:55:37.801Z,75.94
2018-12-24T12:58:07.558Z,76.23
2018-12-24T13:00:37.316Z,76.34
2018-12-24T13:03:07.093Z,76.36
2018-12-24T13:05:37.019Z,76.67
2018-12-24T13:08:06.994Z,77.10
2018-12-24T13:10:36.852Z,77.31
2018-12-24T13:13:06.748Z,77.35
2018-12-24T13:15:37.545Z,77.38
2018-12-24T13:18:07.358Z,77.21
2018-12-24T13:20:37.435Z,76.80
2018-12-24T13:23:07.335Z,76.45
2018-12-24T13:25:37.436Z,76.39
2018-12-24T13:28:07.236Z,76.13
2018-12-24T13:30:36.898Z,75.91
2018-12-24T13:33:06.759Z,75.85
2018-12-24T13:35:36.526Z,76.00
2018-12-24T13:38:06.323Z,76.41
2018-12-24T13:40:36.204Z,77.61
2018-12-24T13:43:05.957Z,79.06
2018-12-24T13:45:35.893Z,78.83
2018-12-24T13:48:05.746Z,78.74
2018-12-24T13:50:35.503Z,78.32
2018-12-24T13:53:05.478Z,76.91
2018-12-24T13:55:35.231Z,76.51
2018-12-24T13:58:05.045Z,76.40
2018-12-24T14:00:35.135Z,76.40
2018-12-24T14:03:04.890Z,76.41
2018-12-24T14:05:34.740Z,76.39
2018-12-24T14:08:04.520Z,76.33
2018-12-24T14:10:34.484Z,76.29
2018-12-24T14:13:04.233Z,76.31
2018-12-24T14:15:34.054Z,76.32
2018-12-24T14:18:04.021Z,76.31
2018-12-24T14:20:35.226Z,76.31
2018-12-24T14:23:05.130Z,76.31
2018-12-24T14:25:38.265Z,76.30
2018-12-24T14:28:06.708Z,76.29
2018-12-24T14:30:36.534Z,76.36
2018-12-24T14:33:06.378Z,76.44
2018-12-24T14:35:36.247Z,76.71
2018-12-24T14:38:06.291Z,76.76
2018-12-24T14:40:35.993Z,76.79
2018-12-24T14:43:05.953Z,76.84
2018-12-24T14:45:35.731Z,76.85
2018-12-24T14:48:05.467Z,76.98
2018-12-24T14:50:35.197Z,76.99
2018-12-24T14:53:05.133Z,77.01
2018-12-24T14:55:35.198Z,77.03
2018-12-24T14:58:05.238Z,77.10
2018-12-24T15:00:35.223Z,77.19
2018-12-24T15:03:05.055Z,77.19
2018-12-24T15:05:34.790Z,77.22
2018-12-24T15:08:04.688Z,77.22
2018-12-24T15:10:34.642Z,77.25
2018-12-24T15:13:04.382Z,77.27
2018-12-24T15:15:35.542Z,77.27
2018-12-24T15:18:05.420Z,77.29
2018-12-24T15:20:35.162Z,77.30
2018-12-24T15:23:04.979Z,77.30
2018-12-24T15:25:34.980Z,77.30
2018-12-24T15:28:04.909Z,77.31
2018-12-24T15:30:34.848Z,77.27
2018-12-24T15:33:04.888Z,77.28
2018-12-24T15:35:34.650Z,77.30
2018-12-24T15:38:04.670Z,77.30
2018-12-24T15:40:34.547Z,77.30
2018-12-24T15:43:04.304Z,77.34
2018-12-24T15:45:35.364Z,77.41
2018-12-24T15:48:05.183Z,77.58
2018-12-24T15:50:35.033Z,77.63
2018-12-24T15:53:04.896Z,77.58
2018-12-24T15:55:34.823Z,77.60
2018-12-24T15:58:04.887Z,77.60
2018-12-24T16:00:34.642Z,77.60
2018-12-24T16:03:04.464Z,77.62
2018-12-24T16:05:34.208Z,77.64
2018-12-24T16:08:04.138Z,77.67
2018-12-24T16:10:33.811Z,77.66
2018-12-24T16:13:03.636Z,77.66
2018-12-24T16:15:33.836Z,77.70
2018-12-24T16:18:03.748Z,77.68
2018-12-24T16:20:33.561Z,77.60
2018-12-24T16:23:03.390Z,77.66
2018-12-24T16:25:34.450Z,77.69
2018-12-24T16:28:04.391Z,77.69
2018-12-24T16:30:34.168Z,77.66
2018-12-24T16:33:03.977Z,77.69
2018-12-24T16:35:33.951Z,77.33
2018-12-24T16:38:03.820Z,77.44
2018-12-24T16:40:33.633Z,77.49
2018-12-24T16:43:03.397Z,77.36
2018-12-24T16:45:33.037Z,77.45
2018-12-24T16:48:03.469Z,77.37
2018-12-24T16:50:34.421Z,77.38
2018-12-24T16:53:04.235Z,77.52
2018-12-24T16:55:34.070Z,77.58
2018-12-24T16:58:04.115Z,77.56
2018-12-24T17:00:34.097Z,77.51
2018-12-24T17:03:04.119Z,77.55
2018-12-24T17:05:35.458Z,77.50
2018-12-24T17:08:05.275Z,77.68
2018-12-24T17:10:35.029Z,77.91
2018-12-24T17:13:04.686Z,78.00
2018-12-24T17:15:34.620Z,78.00
2018-12-24T17:18:04.668Z,77.95
2018-12-24T17:20:34.437Z,77.94
2018-12-24T17:23:05.511Z,77.81
2018-12-24T17:25:36.259Z,77.39
2018-12-24T17:28:06.043Z,77.04
2018-12-24T17:30:35.864Z,77.01
2018-12-24T17:33:05.619Z,77.02
2018-12-24T17:35:35.363Z,77.10
2018-12-24T17:38:05.281Z,77.14
2018-12-24T17:40:35.272Z,77.21
2018-12-24T17:43:05.026Z,77.22
2018-12-24T17:45:34.914Z,77.19
2018-12-24T17:48:04.865Z,77.19
2018-12-24T17:50:34.559Z,77.19
2018-12-24T17:53:04.345Z,77.21
2018-12-24T17:55:34.203Z,77.20
2018-12-24T17:58:04.222Z,77.18
2018-12-24T18:00:34.266Z,77.27
2018-12-24T18:03:04.063Z,77.26
2018-12-24T18:05:34.074Z,77.25
2018-12-24T18:08:03.919Z,77.27
2018-12-24T18:10:33.745Z,77.26
2018-12-24T18:13:03.547Z,77.11
2018-12-24T18:15:33.489Z,76.78
2018-12-24T18:18:03.302Z,76.75
2018-12-24T18:20:32.962Z,76.69
2018-12-24T18:23:02.800Z,76.53
2018-12-24T18:25:32.704Z,76.48
2018-12-24T18:28:02.693Z,76.62
2018-12-24T18:30:32.481Z,76.70
2018-12-24T18:33:02.226Z,76.89
2018-12-24T18:35:33.388Z,76.83
2018-12-24T18:38:03.328Z,77.13
2018-12-24T18:40:33.208Z,77.12
2018-12-24T18:43:03.017Z,77.29
2018-12-24T18:45:33.190Z,77.53
2018-12-24T18:48:03.041Z,77.51
2018-12-24T18:50:33.180Z,77.51
2018-12-24T18:53:03.051Z,77.57
2018-12-24T18:55:32.806Z,77.59
2018-12-24T18:58:02.656Z,77.54
2018-12-24T19:00:32.426Z,77.52
2018-12-24T19:03:02.247Z,77.36
2018-12-24T19:05:32.195Z,77.36
2018-12-24T19:08:02.011Z,77.19
2018-12-24T19:10:31.901Z,77.56
2018-12-24T19:13:02.854Z,77.59
2018-12-24T19:15:32.746Z,77.63
2018-12-24T19:18:02.630Z,77.75
2018-12-24T19:20:32.630Z,77.79
2018-12-24T19:23:02.455Z,77.62
2018-12-24T19:25:32.322Z,77.63
2018-12-24T19:28:02.006Z,77.68
2018-12-24T19:30:32.934Z,77.95
2018-12-24T19:33:05.577Z,77.84
2018-12-24T19:35:35.356Z,77.75
2018-12-24T19:38:05.168Z,77.62
2018-12-24T19:40:34.933Z,77.52
2018-12-24T19:43:04.690Z,77.68
2018-12-24T19:45:34.588Z,77.61
2018-12-24T19:48:04.330Z,77.71
2018-12-24T19:50:34.135Z,77.74
2018-12-24T19:53:04.001Z,77.71
2018-12-24T19:55:33.664Z,77.77
2018-12-24T19:58:03.489Z,77.86
2018-12-24T20:00:33.329Z,77.44
2018-12-24T20:03:03.114Z,76.30
2018-12-24T20:05:33.599Z,75.29
2018-12-24T20:08:03.304Z,75.44
2018-12-24T20:10:32.957Z,75.73
2018-12-24T20:13:02.833Z,75.67
2018-12-24T20:15:32.843Z,76.04
2018-12-24T20:18:02.643Z,76.54
2018-12-24T20:20:32.438Z,76.30
2018-12-24T20:23:02.597Z,76.58
2018-12-24T20:25:32.584Z,76.70
2018-12-24T20:28:02.383Z,76.42
2018-12-24T20:30:32.192Z,76.30
2018-12-24T20:33:02.154Z,76.70
2018-12-24T20:35:32.139Z,77.32
2018-12-24T20:38:01.937Z,77.64
2018-12-24T20:40:31.890Z,77.77
2018-12-24T20:43:02.928Z,78.00
2018-12-24T20:45:32.712Z,78.12
2018-12-24T20:48:06.575Z,78.21
2018-12-24T20:50:34.126Z,77.73
2018-12-24T20:53:04.002Z,76.54
2018-12-24T20:55:33.625Z,76.39
2018-12-24T20:58:03.475Z,76.82
2018-12-24T21:00:33.229Z,76.77
2018-12-24T21:03:02.887Z,76.57
2018-12-24T21:05:32.869Z,75.12
2018-12-24T21:08:02.571Z,74.06
2018-12-24T21:10:32.346Z,71.73
2018-12-24T21:13:02.158Z,70.09
2018-12-24T21:15:31.812Z,69.27
2018-12-24T21:18:01.628Z,67.38
2018-12-24T21:20:31.506Z,66.69
2018-12-24T21:23:01.250Z,67.26
2018-12-24T21:25:31.168Z,66.75
2018-12-24T21:28:01.140Z,66.29
2018-12-24T21:30:31.004Z,66.77
2018-12-24T21:33:00.935Z,66.50
2018-12-24T21:35:31.979Z,65.48
2018-12-24T21:38:01.674Z,65.54
2018-12-24T21:40:31.561Z,65.60
2018-12-24T21:43:01.843Z,63.09
2018-12-24T21:45:31.638Z,62.89
2018-12-24T21:48:01.394Z,62.65
2018-12-24T21:50:31.204Z,63.32
2018-12-24T21:53:01.074Z,63.80
2018-12-24T21:55:30.922Z,63.58
2018-12-24T21:58:00.842Z,64.94
2018-12-24T22:00:30.713Z,66.38
2018-12-24T22:03:00.429Z,66.58
2018-12-24T22:05:30.300Z,65.59
2018-12-24T22:08:00.075Z,65.54
2018-12-24T22:10:29.769Z,64.98
2018-12-24T22:12:59.545Z,65.38
2018-12-24T22:15:29.493Z,65.34
2018-12-24T22:17:59.432Z,65.35
2018-12-24T22:20:30.478Z,65.63
2018-12-24T22:23:00.305Z,65.35
2018-12-24T22:25:30.180Z,64.23
2018-12-24T22:27:59.850Z,65.04
2018-12-24T22:30:29.612Z,63.07
2018-12-24T22:32:59.329Z,62.83
2018-12-24T22:35:29.376Z,62.71
2018-12-24T22:38:00.495Z,61.94
2018-12-24T22:40:30.217Z,63.45
2018-12-24T22:43:00.105Z,61.20
2018-12-24T22:45:29.846Z,62.87
2018-12-24T22:47:59.656Z,62.40
2018-12-24T22:50:29.916Z,63.39
2018-12-24T22:52:59.608Z,63.23
2018-12-24T22:55:29.289Z,63.24
2018-12-24T22:57:59.132Z,64.37
2018-12-24T23:00:48.571Z,64.65
2018-12-24T23:03:18.444Z,64.66
2018-12-24T23:05:48.243Z,64.91
2018-12-24T23:08:18.030Z,65.41
2018-12-24T23:10:47.959Z,65.79
2018-12-24T23:13:17.821Z,66.36
2018-12-24T23:15:47.569Z,66.51
2018-12-24T23:18:17.564Z,67.77
2018-12-24T23:20:47.419Z,69.18
2018-12-24T23:23:17.343Z,69.53
2018-12-24T23:25:47.288Z,70.42
2018-12-24T23:28:17.154Z,70.81
2018-12-24T23:30:47.071Z,72.72
2018-12-24T23:33:17.056Z,75.08
2018-12-24T23:35:46.934Z,77.48
2018-12-24T23:38:16.713Z,78.14
2018-12-24T23:40:46.794Z,77.94
2018-12-24T23:43:16.695Z,78.67
2018-12-24T23:45:46.573Z,78.27
2018-12-24T23:48:16.578Z,78.38
2018-12-24T23:50:46.444Z,78.34
2018-12-24T23:53:16.322Z,77.91
2018-12-24T23:55:46.175Z,77.99
2018-12-24T23:58:15.855Z,77.75
